sensor_id;sensor_type;location;lat;lon;timestamp;pressure;altitude;pressure_sealevel;temperature;humidity
50292;BME280;36190;54.980;73.388;2023-05-02T00:00:02;101424.03;;;0.22;56.55
50292;BME280;36190;54.980;73.388;2023-05-02T00:02:29;101434.16;;;0.30;56.55
50292;BME280;36190;54.980;73.388;2023-05-02T00:04:57;101430.22;;;0.39;56.51
50292;BME280;36190;54.980;73.388;2023-05-02T00:07:24;101437.63;;;0.48;56.40
50292;BME280;36190;54.980;73.388;2023-05-02T00:09:52;101441.66;;;0.56;56.44
50292;BME280;36190;54.980;73.388;2023-05-02T00:12:21;101440.56;;;0.60;56.50
50292;BME280;36190;54.980;73.388;2023-05-02T00:14:49;101436.88;;;0.64;56.50
50292;BME280;36190;54.980;73.388;2023-05-02T00:17:16;101442.41;;;0.75;56.48
50292;BME280;36190;54.980;73.388;2023-05-02T00:19:44;101447.53;;;0.78;56.46
50292;BME280;36190;54.980;73.388;2023-05-02T00:22:12;101440.19;;;0.85;56.44
50292;BME280;36190;54.980;73.388;2023-05-02T00:24:39;101447.81;;;0.90;56.27
50292;BME280;36190;54.980;73.388;2023-05-02T00:27:06;101451.22;;;0.92;56.20
50292;BME280;36190;54.980;73.388;2023-05-02T00:29:35;101452.22;;;0.89;56.17
50292;BME280;36190;54.980;73.388;2023-05-02T00:32:04;101451.50;;;0.86;56.22
50292;BME280;36190;54.980;73.388;2023-05-02T00:34:32;101455.06;;;0.85;56.11
50292;BME280;36190;54.980;73.388;2023-05-02T00:36:59;101445.75;;;0.79;56.19
50292;BME280;36190;54.980;73.388;2023-05-02T00:39:27;101451.84;;;0.79;56.24
50292;BME280;36190;54.980;73.388;2023-05-02T00:41:57;101455.31;;;0.80;56.38
50292;BME280;36190;54.980;73.388;2023-05-02T00:44:25;101455.41;;;0.78;56.09
50292;BME280;36190;54.980;73.388;2023-05-02T00:46:54;101465.69;;;0.83;56.07
50292;BME280;36190;54.980;73.388;2023-05-02T00:49:22;101463.88;;;0.84;55.91
50292;BME280;36190;54.980;73.388;2023-05-02T00:51:49;101475.09;;;0.87;55.82
50292;BME280;36190;54.980;73.388;2023-05-02T00:54:17;101477.66;;;0.89;55.73
50292;BME280;36190;54.980;73.388;2023-05-02T00:56:44;101478.50;;;0.89;55.83
50292;BME280;36190;54.980;73.388;2023-05-02T00:59:12;101486.31;;;0.91;55.73
50292;BME280;36190;54.980;73.388;2023-05-02T01:01:49;101488.69;;;0.95;55.99
50292;BME280;36190;54.980;73.388;2023-05-02T01:04:29;101488.56;;;0.99;55.87
50292;BME280;36190;54.980;73.388;2023-05-02T01:07:08;101491.09;;;1.00;55.84
50292;BME280;36190;54.980;73.388;2023-05-02T01:09:51;101498.66;;;1.06;55.62
50292;BME280;36190;54.980;73.388;2023-05-02T01:12:25;101500.81;;;1.16;55.32
50292;BME280;36190;54.980;73.388;2023-05-02T01:14:54;101508.06;;;1.28;54.92
50292;BME280;36190;54.980;73.388;2023-05-02T01:17:26;101510.22;;;1.37;54.72
50292;BME280;36190;54.980;73.388;2023-05-02T01:19:58;101509.03;;;1.43;54.54
50292;BME280;36190;54.980;73.388;2023-05-02T01:22:27;101504.28;;;1.50;54.29
50292;BME280;36190;54.980;73.388;2023-05-02T01:25:03;101496.50;;;1.48;54.11
50292;BME280;36190;54.980;73.388;2023-05-02T01:27:46;101519.44;;;1.62;53.93
50292;BME280;36190;54.980;73.388;2023-05-02T01:30:17;101525.38;;;1.66;53.90
50292;BME280;36190;54.980;73.388;2023-05-02T01:32:47;101533.03;;;1.71;53.87
50292;BME280;36190;54.980;73.388;2023-05-02T01:35:17;101538.22;;;1.72;53.77
50292;BME280;36190;54.980;73.388;2023-05-02T01:37:46;101527.94;;;1.68;53.92
50292;BME280;36190;54.980;73.388;2023-05-02T01:40:16;101525.81;;;1.74;53.94
50292;BME280;36190;54.980;73.388;2023-05-02T01:42:46;101537.03;;;1.78;53.72
50292;BME280;36190;54.980;73.388;2023-05-02T01:45:16;101541.28;;;1.81;53.63
50292;BME280;36190;54.980;73.388;2023-05-02T01:47:45;101538.72;;;1.79;53.51
50292;BME280;36190;54.980;73.388;2023-05-02T01:50:16;101537.28;;;1.89;53.43
50292;BME280;36190;54.980;73.388;2023-05-02T01:52:46;101544.69;;;1.99;53.22
50292;BME280;36190;54.980;73.388;2023-05-02T01:55:16;101541.53;;;2.08;52.98
50292;BME280;36190;54.980;73.388;2023-05-02T01:57:46;101539.53;;;2.13;52.97
50292;BME280;36190;54.980;73.388;2023-05-02T02:00:17;101544.59;;;2.16;52.91
50292;BME280;36190;54.980;73.388;2023-05-02T02:02:46;101543.69;;;2.17;52.91
50292;BME280;36190;54.980;73.388;2023-05-02T02:05:15;101540.53;;;2.27;52.77
50292;BME280;36190;54.980;73.388;2023-05-02T02:07:45;101540.03;;;2.36;52.81
50292;BME280;36190;54.980;73.388;2023-05-02T02:10:12;101546.38;;;2.48;52.68
50292;BME280;36190;54.980;73.388;2023-05-02T02:12:42;101538.41;;;2.50;52.65
50292;BME280;36190;54.980;73.388;2023-05-02T02:15:18;101548.97;;;2.64;52.64
50292;BME280;36190;54.980;73.388;2023-05-02T02:17:48;101549.84;;;2.65;52.47
50292;BME280;36190;54.980;73.388;2023-05-02T02:20:21;101556.53;;;2.70;52.81
50292;BME280;36190;54.980;73.388;2023-05-02T02:22:49;101548.44;;;2.73;52.70
50292;BME280;36190;54.980;73.388;2023-05-02T02:25:18;101548.28;;;2.77;52.62
50292;BME280;36190;54.980;73.388;2023-05-02T02:27:46;101552.34;;;2.82;52.67
50292;BME280;36190;54.980;73.388;2023-05-02T02:30:14;101551.16;;;2.88;52.88
50292;BME280;36190;54.980;73.388;2023-05-02T02:32:43;101550.19;;;2.89;52.74
50292;BME280;36190;54.980;73.388;2023-05-02T02:35:11;101548.06;;;2.96;52.75
50292;BME280;36190;54.980;73.388;2023-05-02T02:37:40;101555.78;;;2.99;52.64
50292;BME280;36190;54.980;73.388;2023-05-02T02:40:17;101562.50;;;3.05;52.67
50292;BME280;36190;54.980;73.388;2023-05-02T02:42:51;101563.28;;;3.07;52.78
50292;BME280;36190;54.980;73.388;2023-05-02T02:45:33;101556.88;;;3.11;52.70
50292;BME280;36190;54.980;73.388;2023-05-02T02:48:11;101557.66;;;3.27;52.50
50292;BME280;36190;54.980;73.388;2023-05-02T02:50:53;101564.25;;;3.35;52.28
50292;BME280;36190;54.980;73.388;2023-05-02T02:53:33;101567.47;;;3.40;52.14
50292;BME280;36190;54.980;73.388;2023-05-02T02:56:12;101552.75;;;3.36;52.01
50292;BME280;36190;54.980;73.388;2023-05-02T02:58:46;101548.44;;;3.35;52.04
50292;BME280;36190;54.980;73.388;2023-05-02T03:01:17;101560.78;;;3.49;52.02
50292;BME280;36190;54.980;73.388;2023-05-02T03:03:48;101567.09;;;3.61;51.83
50292;BME280;36190;54.980;73.388;2023-05-02T03:06:16;101565.69;;;3.69;51.76
50292;BME280;36190;54.980;73.388;2023-05-02T03:08:44;101554.50;;;3.80;51.41
50292;BME280;36190;54.980;73.388;2023-05-02T03:11:12;101571.91;;;3.97;50.93
50292;BME280;36190;54.980;73.388;2023-05-02T03:13:39;101567.25;;;4.16;50.84
50292;BME280;36190;54.980;73.388;2023-05-02T03:16:30;101569.09;;;4.28;50.53
50292;BME280;36190;54.980;73.388;2023-05-02T03:19:00;101567.78;;;4.35;50.38
50292;BME280;36190;54.980;73.388;2023-05-02T03:21:28;101569.16;;;4.41;50.21
50292;BME280;36190;54.980;73.388;2023-05-02T03:23:57;101562.66;;;4.47;49.94
50292;BME280;36190;54.980;73.388;2023-05-02T03:26:25;101568.19;;;4.57;49.89
50292;BME280;36190;54.980;73.388;2023-05-02T03:28:52;101564.31;;;4.62;49.73
50292;BME280;36190;54.980;73.388;2023-05-02T03:31:20;101566.53;;;4.68;49.68
50292;BME280;36190;54.980;73.388;2023-05-02T03:33:47;101564.22;;;4.77;49.49
50292;BME280;36190;54.980;73.388;2023-05-02T03:36:16;101559.09;;;4.88;49.45
50292;BME280;36190;54.980;73.388;2023-05-02T03:38:44;101553.91;;;5.00;49.07
50292;BME280;36190;54.980;73.388;2023-05-02T03:41:11;101557.75;;;5.08;48.44
50292;BME280;36190;54.980;73.388;2023-05-02T03:43:39;101563.06;;;5.21;48.08
50292;BME280;36190;54.980;73.388;2023-05-02T03:46:07;101568.28;;;5.36;47.69
50292;BME280;36190;54.980;73.388;2023-05-02T03:48:36;101561.38;;;5.46;47.07
50292;BME280;36190;54.980;73.388;2023-05-02T03:51:05;101564.34;;;5.55;46.64
50292;BME280;36190;54.980;73.388;2023-05-02T03:53:36;101567.31;;;5.63;46.09
50292;BME280;36190;54.980;73.388;2023-05-02T03:56:04;101557.25;;;5.68;45.82
50292;BME280;36190;54.980;73.388;2023-05-02T03:58:32;101564.31;;;5.81;45.32
50292;BME280;36190;54.980;73.388;2023-05-02T04:01:01;101561.97;;;5.89;44.90
50292;BME280;36190;54.980;73.388;2023-05-02T04:03:28;101563.25;;;5.96;44.58
50292;BME280;36190;54.980;73.388;2023-05-02T04:05:56;101568.00;;;6.04;44.22
50292;BME280;36190;54.980;73.388;2023-05-02T04:08:24;101559.72;;;6.09;43.75
50292;BME280;36190;54.980;73.388;2023-05-02T04:10:53;101569.56;;;6.19;43.31
50292;BME280;36190;54.980;73.388;2023-05-02T04:13:20;101558.19;;;6.30;43.24
50292;BME280;36190;54.980;73.388;2023-05-02T04:15:48;101553.91;;;6.41;42.79
50292;BME280;36190;54.980;73.388;2023-05-02T04:18:15;101556.63;;;6.52;42.56
50292;BME280;36190;54.980;73.388;2023-05-02T04:20:43;101555.44;;;6.56;41.83
50292;BME280;36190;54.980;73.388;2023-05-02T04:23:10;101557.59;;;6.51;41.45
50292;BME280;36190;54.980;73.388;2023-05-02T04:25:38;101555.91;;;6.50;41.22
50292;BME280;36190;54.980;73.388;2023-05-02T04:28:07;101551.94;;;6.56;41.16
50292;BME280;36190;54.980;73.388;2023-05-02T04:30:35;101542.69;;;6.62;40.93
50292;BME280;36190;54.980;73.388;2023-05-02T04:33:02;101548.38;;;6.68;40.82
50292;BME280;36190;54.980;73.388;2023-05-02T04:35:30;101553.13;;;6.76;40.94
50292;BME280;36190;54.980;73.388;2023-05-02T04:37:57;101555.28;;;6.82;40.45
50292;BME280;36190;54.980;73.388;2023-05-02T04:40:25;101547.84;;;6.87;40.47
50292;BME280;36190;54.980;73.388;2023-05-02T04:42:52;101547.16;;;6.97;40.37
50292;BME280;36190;54.980;73.388;2023-05-02T04:45:21;101537.75;;;7.04;40.20
50292;BME280;36190;54.980;73.388;2023-05-02T04:47:49;101541.66;;;7.11;40.13
50292;BME280;36190;54.980;73.388;2023-05-02T04:50:16;101532.25;;;7.07;40.02
50292;BME280;36190;54.980;73.388;2023-05-02T04:52:44;101549.00;;;7.19;40.03
50292;BME280;36190;54.980;73.388;2023-05-02T04:55:12;101537.81;;;7.27;39.57
50292;BME280;36190;54.980;73.388;2023-05-02T04:57:39;101540.13;;;7.32;39.35
50292;BME280;36190;54.980;73.388;2023-05-02T05:00:08;101541.59;;;7.36;38.85
50292;BME280;36190;54.980;73.388;2023-05-02T05:02:37;101557.25;;;7.39;38.44
50292;BME280;36190;54.980;73.388;2023-05-02T05:05:05;101544.25;;;7.36;38.09
50292;BME280;36190;54.980;73.388;2023-05-02T05:07:32;101545.06;;;7.48;38.09
50292;BME280;36190;54.980;73.388;2023-05-02T05:10:00;101544.72;;;7.64;37.88
50292;BME280;36190;54.980;73.388;2023-05-02T05:12:27;101549.91;;;7.77;37.43
50292;BME280;36190;54.980;73.388;2023-05-02T05:14:55;101536.25;;;7.81;37.22
50292;BME280;36190;54.980;73.388;2023-05-02T05:17:22;101557.88;;;7.88;37.11
50292;BME280;36190;54.980;73.388;2023-05-02T05:19:51;101555.00;;;7.91;36.92
50292;BME280;36190;54.980;73.388;2023-05-02T05:22:18;101565.25;;;7.96;36.72
50292;BME280;36190;54.980;73.388;2023-05-02T05:24:53;101554.72;;;7.94;36.36
50292;BME280;36190;54.980;73.388;2023-05-02T05:27:20;101556.06;;;8.00;36.57
50292;BME280;36190;54.980;73.388;2023-05-02T05:29:48;101553.41;;;8.11;36.42
50292;BME280;36190;54.980;73.388;2023-05-02T05:32:15;101555.28;;;8.32;36.30
50292;BME280;36190;54.980;73.388;2023-05-02T05:34:43;101558.25;;;8.50;36.12
50292;BME280;36190;54.980;73.388;2023-05-02T05:37:12;101551.75;;;8.55;35.58
50292;BME280;36190;54.980;73.388;2023-05-02T05:39:39;101547.28;;;8.44;35.61
50292;BME280;36190;54.980;73.388;2023-05-02T05:42:07;101559.97;;;8.40;35.83
50292;BME280;36190;54.980;73.388;2023-05-02T05:44:35;101547.28;;;8.44;35.57
50292;BME280;36190;54.980;73.388;2023-05-02T05:47:02;101556.56;;;8.49;35.56
50292;BME280;36190;54.980;73.388;2023-05-02T05:49:30;101551.38;;;8.59;35.28
50292;BME280;36190;54.980;73.388;2023-05-02T05:51:57;101545.53;;;8.65;34.95
50292;BME280;36190;54.980;73.388;2023-05-02T05:54:26;101544.69;;;8.65;34.78
50292;BME280;36190;54.980;73.388;2023-05-02T05:56:54;101542.47;;;8.70;34.89
50292;BME280;36190;54.980;73.388;2023-05-02T05:59:21;101551.84;;;8.86;34.46
50292;BME280;36190;54.980;73.388;2023-05-02T06:01:48;101549.47;;;9.04;34.45
50292;BME280;36190;54.980;73.388;2023-05-02T06:04:16;101545.50;;;9.19;34.33
50292;BME280;36190;54.980;73.388;2023-05-02T06:06:44;101547.97;;;9.32;33.94
50292;BME280;36190;54.980;73.388;2023-05-02T06:09:11;101563.66;;;9.35;34.07
50292;BME280;36190;54.980;73.388;2023-05-02T06:11:40;101557.69;;;9.43;33.89
50292;BME280;36190;54.980;73.388;2023-05-02T06:14:08;101546.25;;;9.53;33.68
50292;BME280;36190;54.980;73.388;2023-05-02T06:16:35;101545.84;;;9.57;33.71
50292;BME280;36190;54.980;73.388;2023-05-02T06:19:03;101541.38;;;9.68;33.56
50292;BME280;36190;54.980;73.388;2023-05-02T06:21:30;101540.16;;;9.72;33.46
50292;BME280;36190;54.980;73.388;2023-05-02T06:23:57;101548.16;;;9.72;33.32
50292;BME280;36190;54.980;73.388;2023-05-02T06:26:25;101550.53;;;9.75;33.37
50292;BME280;36190;54.980;73.388;2023-05-02T06:28:55;101549.44;;;9.77;32.94
50292;BME280;36190;54.980;73.388;2023-05-02T06:31:23;101547.34;;;9.81;33.03
50292;BME280;36190;54.980;73.388;2023-05-02T06:33:51;101559.97;;;9.79;33.02
50292;BME280;36190;54.980;73.388;2023-05-02T06:36:18;101551.53;;;9.74;33.06
50292;BME280;36190;54.980;73.388;2023-05-02T06:38:55;101557.16;;;9.81;33.08
50292;BME280;36190;54.980;73.388;2023-05-02T06:41:22;101544.69;;;9.81;32.91
50292;BME280;36190;54.980;73.388;2023-05-02T06:43:50;101545.38;;;9.83;33.05
50292;BME280;36190;54.980;73.388;2023-05-02T06:46:17;101537.81;;;9.88;32.97
50292;BME280;36190;54.980;73.388;2023-05-02T06:48:45;101542.50;;;10.06;32.89
50292;BME280;36190;54.980;73.388;2023-05-02T06:51:13;101534.78;;;10.13;32.77
50292;BME280;36190;54.980;73.388;2023-05-02T06:53:41;101547.16;;;10.24;32.52
50292;BME280;36190;54.980;73.388;2023-05-02T06:56:10;101554.75;;;10.18;32.31
50292;BME280;36190;54.980;73.388;2023-05-02T06:58:38;101546.03;;;10.16;32.33
50292;BME280;36190;54.980;73.388;2023-05-02T07:01:05;101537.50;;;10.23;32.21
50292;BME280;36190;54.980;73.388;2023-05-02T07:03:32;101532.91;;;10.44;32.20
50292;BME280;36190;54.980;73.388;2023-05-02T07:06:00;101527.03;;;10.70;31.62
50292;BME280;36190;54.980;73.388;2023-05-02T07:08:27;101527.56;;;10.94;31.78
50292;BME280;36190;54.980;73.388;2023-05-02T07:10:55;101529.09;;;11.16;31.53
50292;BME280;36190;54.980;73.388;2023-05-02T07:13:24;101530.88;;;11.25;31.07
50292;BME280;36190;54.980;73.388;2023-05-02T07:15:52;101534.94;;;11.30;31.09
50292;BME280;36190;54.980;73.388;2023-05-02T07:18:19;101528.91;;;11.27;31.18
50292;BME280;36190;54.980;73.388;2023-05-02T07:20:47;101536.78;;;11.19;31.28
50292;BME280;36190;54.980;73.388;2023-05-02T07:23:14;101526.00;;;11.11;31.41
50292;BME280;36190;54.980;73.388;2023-05-02T07:25:42;101526.41;;;11.16;31.40
50292;BME280;36190;54.980;73.388;2023-05-02T07:28:09;101529.19;;;11.24;31.10
50292;BME280;36190;54.980;73.388;2023-05-02T07:30:38;101525.66;;;11.34;31.09
50292;BME280;36190;54.980;73.388;2023-05-02T07:33:06;101525.16;;;11.48;31.12
50292;BME280;36190;54.980;73.388;2023-05-02T07:35:33;101523.69;;;11.64;30.91
50292;BME280;36190;54.980;73.388;2023-05-02T07:38:00;101518.56;;;11.80;30.74
50292;BME280;36190;54.980;73.388;2023-05-02T07:40:28;101510.88;;;11.95;30.45
50292;BME280;36190;54.980;73.388;2023-05-02T07:42:57;101495.50;;;12.07;30.64
50292;BME280;36190;54.980;73.388;2023-05-02T07:45:27;101508.59;;;12.47;30.33
50292;BME280;36190;54.980;73.388;2023-05-02T07:47:56;101525.41;;;12.57;30.10
50292;BME280;36190;54.980;73.388;2023-05-02T07:50:23;101525.41;;;12.57;30.02
50292;BME280;36190;54.980;73.388;2023-05-02T07:52:51;101526.50;;;12.64;29.93
50292;BME280;36190;54.980;73.388;2023-05-02T07:55:19;101527.25;;;12.75;29.96
50292;BME280;36190;54.980;73.388;2023-05-02T07:57:47;101525.69;;;12.90;29.47
50292;BME280;36190;54.980;73.388;2023-05-02T08:00:15;101518.16;;;13.12;29.17
50292;BME280;36190;54.980;73.388;2023-05-02T08:02:43;101529.66;;;13.31;29.05
50292;BME280;36190;54.980;73.388;2023-05-02T08:05:12;101529.38;;;13.42;28.73
50292;BME280;36190;54.980;73.388;2023-05-02T08:07:40;101530.63;;;13.56;28.70
50292;BME280;36190;54.980;73.388;2023-05-02T08:10:08;101529.22;;;13.70;28.46
50292;BME280;36190;54.980;73.388;2023-05-02T08:12:37;101527.56;;;13.78;28.15
50292;BME280;36190;54.980;73.388;2023-05-02T08:15:07;101523.41;;;13.92;27.94
50292;BME280;36190;54.980;73.388;2023-05-02T08:17:35;101522.13;;;14.21;27.83
50292;BME280;36190;54.980;73.388;2023-05-02T08:20:03;101523.91;;;14.71;27.42
50292;BME280;36190;54.980;73.388;2023-05-02T08:22:32;101529.28;;;15.05;27.12
50292;BME280;36190;54.980;73.388;2023-05-02T08:24:59;101529.06;;;15.15;26.72
50292;BME280;36190;54.980;73.388;2023-05-02T08:27:27;101528.38;;;15.29;26.46
50292;BME280;36190;54.980;73.388;2023-05-02T08:29:54;101524.59;;;15.55;26.25
50292;BME280;36190;54.980;73.388;2023-05-02T08:32:22;101527.19;;;15.80;25.82
50292;BME280;36190;54.980;73.388;2023-05-02T08:34:49;101521.31;;;16.16;25.61
50292;BME280;36190;54.980;73.388;2023-05-02T08:37:16;101524.44;;;16.52;25.24
50292;BME280;36190;54.980;73.388;2023-05-02T08:39:46;101522.28;;;16.70;24.94
50292;BME280;36190;54.980;73.388;2023-05-02T08:42:13;101529.41;;;16.63;24.63
50292;BME280;36190;54.980;73.388;2023-05-02T08:44:41;101538.75;;;16.29;24.61
50292;BME280;36190;54.980;73.388;2023-05-02T08:47:10;101535.94;;;15.82;24.79
50292;BME280;36190;54.980;73.388;2023-05-02T08:49:41;101536.22;;;15.56;24.92
50292;BME280;36190;54.980;73.388;2023-05-02T08:52:10;101532.81;;;15.70;25.21
50292;BME280;36190;54.980;73.388;2023-05-02T08:54:38;101526.16;;;15.81;24.95
50292;BME280;36190;54.980;73.388;2023-05-02T08:57:08;101524.81;;;15.93;24.90
50292;BME280;36190;54.980;73.388;2023-05-02T08:59:36;101522.63;;;16.20;24.63
50292;BME280;36190;54.980;73.388;2023-05-02T09:02:11;101524.38;;;16.60;24.18
50292;BME280;36190;54.980;73.388;2023-05-02T09:04:40;101510.41;;;16.80;23.79
50292;BME280;36190;54.980;73.388;2023-05-02T09:07:08;101524.06;;;17.01;23.69
50292;BME280;36190;54.980;73.388;2023-05-02T09:09:36;101527.03;;;17.37;23.64
50292;BME280;36190;54.980;73.388;2023-05-02T09:12:03;101539.41;;;17.76;23.39
50292;BME280;36190;54.980;73.388;2023-05-02T09:14:32;101537.41;;;18.00;22.86
50292;BME280;36190;54.980;73.388;2023-05-02T09:17:00;101536.97;;;18.33;22.78
50292;BME280;36190;54.980;73.388;2023-05-02T09:19:28;101536.47;;;18.66;22.43
50292;BME280;36190;54.980;73.388;2023-05-02T09:21:59;101540.69;;;18.76;22.07
50292;BME280;36190;54.980;73.388;2023-05-02T09:24:27;101548.56;;;18.71;22.18
50292;BME280;36190;54.980;73.388;2023-05-02T09:26:59;101536.09;;;18.69;21.73
50292;BME280;36190;54.980;73.388;2023-05-02T09:29:28;101537.75;;;18.71;22.01
50292;BME280;36190;54.980;73.388;2023-05-02T09:32:02;101545.00;;;18.92;21.71
50292;BME280;36190;54.980;73.388;2023-05-02T09:34:30;101545.22;;;19.19;21.52
50292;BME280;36190;54.980;73.388;2023-05-02T09:36:57;101536.59;;;19.02;21.44
50292;BME280;36190;54.980;73.388;2023-05-02T09:39:26;101543.22;;;18.77;21.49
50292;BME280;36190;54.980;73.388;2023-05-02T09:41:54;101539.81;;;18.68;21.59
50292;BME280;36190;54.980;73.388;2023-05-02T09:44:24;101541.88;;;18.66;21.35
50292;BME280;36190;54.980;73.388;2023-05-02T09:46:54;101537.75;;;18.71;21.45
50292;BME280;36190;54.980;73.388;2023-05-02T09:49:41;101541.44;;;19.13;21.19
50292;BME280;36190;54.980;73.388;2023-05-02T09:52:10;101543.31;;;19.48;21.02
50292;BME280;36190;54.980;73.388;2023-05-02T09:54:38;101546.44;;;19.93;20.61
50292;BME280;36190;54.980;73.388;2023-05-02T09:57:05;101546.16;;;20.30;20.28
50292;BME280;36190;54.980;73.388;2023-05-02T09:59:33;101543.69;;;20.36;20.02
50292;BME280;36190;54.980;73.388;2023-05-02T10:02:02;101548.44;;;20.13;20.20
50292;BME280;36190;54.980;73.388;2023-05-02T10:04:32;101545.22;;;19.96;20.31
50292;BME280;36190;54.980;73.388;2023-05-02T10:07:01;101559.03;;;20.15;20.06
50292;BME280;36190;54.980;73.388;2023-05-02T10:09:32;101552.78;;;20.08;19.89
50292;BME280;36190;54.980;73.388;2023-05-02T10:12:02;101550.66;;;19.96;20.04
50292;BME280;36190;54.980;73.388;2023-05-02T10:14:38;101551.28;;;19.98;19.81
50292;BME280;36190;54.980;73.388;2023-05-02T10:17:10;101552.78;;;20.08;19.83
50292;BME280;36190;54.980;73.388;2023-05-02T10:19:52;101559.28;;;20.20;19.60
50292;BME280;36190;54.980;73.388;2023-05-02T10:22:22;101557.47;;;20.41;19.54
50292;BME280;36190;54.980;73.388;2023-05-02T10:24:51;101554.16;;;20.66;19.46
50292;BME280;36190;54.980;73.388;2023-05-02T10:27:20;101564.59;;;20.96;19.23
50292;BME280;36190;54.980;73.388;2023-05-02T10:29:48;101558.75;;;21.12;19.08
50292;BME280;36190;54.980;73.388;2023-05-02T10:32:17;101565.22;;;21.25;18.90
50292;BME280;36190;54.980;73.388;2023-05-02T10:34:46;101562.44;;;21.52;18.85
50292;BME280;36190;54.980;73.388;2023-05-02T10:37:16;101557.69;;;22.00;18.60
50292;BME280;36190;54.980;73.388;2023-05-02T10:39:46;101571.00;;;22.53;18.13
50292;BME280;36190;54.980;73.388;2023-05-02T10:42:14;101573.63;;;22.67;17.92
50292;BME280;36190;54.980;73.388;2023-05-02T10:44:43;101569.56;;;22.76;18.00
50292;BME280;36190;54.980;73.388;2023-05-02T10:47:17;101572.41;;;23.14;17.55
50292;BME280;36190;54.980;73.388;2023-05-02T10:49:50;101568.06;;;23.50;17.23
50292;BME280;36190;54.980;73.388;2023-05-02T10:52:33;101566.34;;;23.56;16.98
50292;BME280;36190;54.980;73.388;2023-05-02T10:55:17;101562.63;;;23.69;17.14
50292;BME280;36190;54.980;73.388;2023-05-02T10:58:20;101559.59;;;23.77;17.05
50292;BME280;36190;54.980;73.388;2023-05-02T11:00:51;101563.03;;;24.22;17.15
50292;BME280;36190;54.980;73.388;2023-05-02T11:03:52;101571.75;;;24.85;16.59
50292;BME280;36190;54.980;73.388;2023-05-02T11:06:20;101560.00;;;25.08;16.32
50292;BME280;36190;54.980;73.388;2023-05-02T11:08:48;101555.59;;;25.55;16.16
50292;BME280;36190;54.980;73.388;2023-05-02T11:11:39;101567.59;;;25.83;15.62
50292;BME280;36190;54.980;73.388;2023-05-02T11:14:07;101565.63;;;26.07;15.69
50292;BME280;36190;54.980;73.388;2023-05-02T11:17:08;101569.22;;;26.71;15.70
50292;BME280;36190;54.980;73.388;2023-05-02T11:25:44;101566.91;;;26.46;15.49
50292;BME280;36190;54.980;73.388;2023-05-02T11:28:40;101567.03;;;26.39;15.18
50292;BME280;36190;54.980;73.388;2023-05-02T11:31:09;101572.00;;;25.96;15.74
50292;BME280;36190;54.980;73.388;2023-05-02T11:33:56;101565.84;;;25.89;15.65
50292;BME280;36190;54.980;73.388;2023-05-02T11:36:28;101558.34;;;26.13;15.28
50292;BME280;36190;54.980;73.388;2023-05-02T11:38:58;101562.75;;;26.60;15.40
50292;BME280;36190;54.980;73.388;2023-05-02T11:41:37;101568.66;;;27.03;14.97
50292;BME280;36190;54.980;73.388;2023-05-02T11:44:06;101563.44;;;27.02;14.89
50292;BME280;36190;54.980;73.388;2023-05-02T11:46:36;101570.16;;;27.11;14.67
50292;BME280;36190;54.980;73.388;2023-05-02T11:49:04;101566.69;;;27.38;14.82
50292;BME280;36190;54.980;73.388;2023-05-02T11:51:34;101572.25;;;27.43;14.43
50292;BME280;36190;54.980;73.388;2023-05-02T11:54:01;101568.50;;;27.10;14.24
50292;BME280;36190;54.980;73.388;2023-05-02T11:56:29;101574.13;;;27.03;14.51
50292;BME280;36190;54.980;73.388;2023-05-02T11:59:01;101580.69;;;27.20;14.25
50292;BME280;36190;54.980;73.388;2023-05-02T12:01:30;101571.59;;;27.36;14.37
50292;BME280;36190;54.980;73.388;2023-05-02T12:04:01;101571.94;;;27.84;14.11
50292;BME280;36190;54.980;73.388;2023-05-02T12:06:29;101578.56;;;28.16;13.78
50292;BME280;36190;54.980;73.388;2023-05-02T12:09:06;101583.69;;;28.30;13.37
50292;BME280;36190;54.980;73.388;2023-05-02T12:11:34;101584.84;;;28.34;13.50
50292;BME280;36190;54.980;73.388;2023-05-02T12:14:03;101583.28;;;28.43;13.61
50292;BME280;36190;54.980;73.388;2023-05-02T12:16:33;101578.41;;;28.50;13.58
50292;BME280;36190;54.980;73.388;2023-05-02T12:19:01;101583.91;;;28.23;13.28
50292;BME280;36190;54.980;73.388;2023-05-02T12:21:29;101580.41;;;27.83;13.50
50292;BME280;36190;54.980;73.388;2023-05-02T12:23:59;101581.13;;;27.73;13.61
50292;BME280;36190;54.980;73.388;2023-05-02T12:26:27;101585.00;;;27.77;13.59
50292;BME280;36190;54.980;73.388;2023-05-02T12:28:57;101586.38;;;28.02;13.55
50292;BME280;36190;54.980;73.388;2023-05-02T12:31:26;101592.00;;;28.12;13.32
50292;BME280;36190;54.980;73.388;2023-05-02T12:33:58;101591.00;;;27.96;12.89
50292;BME280;36190;54.980;73.388;2023-05-02T12:36:26;101593.22;;;27.77;13.42
50292;BME280;36190;54.980;73.388;2023-05-02T12:38:56;101575.34;;;27.69;13.14
50292;BME280;36190;54.980;73.388;2023-05-02T12:41:31;101585.75;;;28.17;13.31
50292;BME280;36190;54.980;73.388;2023-05-02T12:43:59;101591.97;;;28.35;12.89
50292;BME280;36190;54.980;73.388;2023-05-02T12:46:27;101583.34;;;28.53;13.07
50292;BME280;36190;54.980;73.388;2023-05-02T12:49:06;101591.81;;;28.79;12.80
50292;BME280;36190;54.980;73.388;2023-05-02T12:51:34;101591.25;;;28.77;12.84
50292;BME280;36190;54.980;73.388;2023-05-02T12:54:02;101593.94;;;28.72;13.15
50292;BME280;36190;54.980;73.388;2023-05-02T12:56:30;101588.31;;;28.57;12.91
50292;BME280;36190;54.980;73.388;2023-05-02T12:59:04;101592.59;;;28.42;13.18
50292;BME280;36190;54.980;73.388;2023-05-02T13:01:32;101593.13;;;28.17;12.89
50292;BME280;36190;54.980;73.388;2023-05-02T13:04:00;101589.34;;;27.95;13.01